Time;durP1;ratioP1;P1;durP2;ratioP2;P2;SDS_P1;SDS_P2;PMS_P1;PMS_P2;Temp;Humidity;BMP_temperature;BMP_pressure;BME280_temperature;BME280_humidity;BME280_pressure;Samples;Min_cycle;Max_cycle;Signal;HPM_P1;HPM_P2
2023/10/29 00:00:04;;;;;;;6.35;3.17;;;9.90;99.90;;;;;;4996694;28;20028;-61
2023/10/29 00:02:30;;;;;;;10.82;5.63;;;9.90;99.90;;;;;;4997281;28;20030;-61
2023/10/29 00:04:55;;;;;;;6.85;3.17;;;9.90;99.90;;;;;;4994868;28;20039;-61
2023/10/29 00:07:21;;;;;;;7.25;3.60;;;9.90;99.90;;;;;;4999072;28;20530;-61
2023/10/29 00:09:46;;;;;;;10.05;3.33;;;9.90;99.90;;;;;;4995125;28;20100;-59
2023/10/29 00:12:12;;;;;;;5.07;3.42;;;9.90;99.90;;;;;;4998319;28;20038;-61
2023/10/29 00:14:38;;;;;;;7.32;3.20;;;9.90;99.90;;;;;;4999516;28;20033;-60
2023/10/29 00:17:03;;;;;;;4.03;3.00;;;9.90;99.90;;;;;;4998125;28;20027;-62
2023/10/29 00:19:29;;;;;;;7.22;3.22;;;9.90;99.90;;;;;;4993984;28;20030;-61
2023/10/29 00:21:55;;;;;;;8.13;3.20;;;9.90;99.90;;;;;;4995590;28;20050;-62
2023/10/29 00:24:22;;;;;;;10.98;3.38;;;9.90;99.90;;;;;;4998921;28;20030;-60
2023/10/29 00:26:47;;;;;;;8.90;3.10;;;9.90;99.90;;;;;;4999070;28;20060;-62
2023/10/29 00:29:13;;;;;;;6.35;3.35;;;9.90;99.90;;;;;;4998551;28;20053;-61
2023/10/29 00:31:38;;;;;;;9.57;3.05;;;9.90;99.90;;;;;;4994051;28;20132;-61
2023/10/29 00:34:04;;;;;;;8.35;3.38;;;9.90;99.90;;;;;;4996643;28;20081;-61
2023/10/29 00:36:30;;;;;;;5.97;2.95;;;9.90;99.90;;;;;;4995451;28;20062;-61
2023/10/29 00:38:56;;;;;;;8.95;3.55;;;9.90;99.90;;;;;;4995686;28;20544;-61
2023/10/29 00:41:21;;;;;;;10.85;3.75;;;9.90;99.90;;;;;;4997136;28;20829;-61
2023/10/29 00:43:47;;;;;;;8.23;3.50;;;9.90;99.90;;;;;;4997754;28;20478;-61
2023/10/29 00:46:14;;;;;;;4.93;3.13;;;9.90;99.90;;;;;;4996808;28;20018;-61
2023/10/29 00:48:40;;;;;;;7.88;4.43;;;9.90;99.90;;;;;;4997897;28;20428;-61
2023/10/29 00:51:07;;;;;;;4.15;2.80;;;9.90;99.90;;;;;;4998172;28;20041;-61
2023/10/29 00:53:33;;;;;;;9.00;3.25;;;9.90;99.90;;;;;;4999301;28;20070;-62
2023/10/29 00:56:00;;;;;;;7.20;3.90;;;9.90;99.90;;;;;;4995914;28;20042;-60
2023/10/29 00:58:27;;;;;;;5.18;3.10;;;9.90;99.90;;;;;;4994584;28;20506;-60
2023/10/29 01:00:53;;;;;;;4.82;3.30;;;9.90;99.90;;;;;;4993207;28;20363;-61
2023/10/29 01:03:19;;;;;;;5.97;2.83;;;9.90;99.90;;;;;;4994179;28;20022;-61
2023/10/29 01:05:46;;;;;;;8.30;3.53;;;9.90;99.90;;;;;;4997747;28;20029;-61
2023/10/29 01:08:12;;;;;;;7.53;3.53;;;9.80;99.90;;;;;;4999623;28;20026;-61
2023/10/29 01:10:38;;;;;;;4.82;3.38;;;9.90;99.90;;;;;;4996235;28;20603;-60
2023/10/29 01:13:04;;;;;;;5.57;2.92;;;9.90;99.90;;;;;;4996481;28;20087;-61
2023/10/29 01:15:30;;;;;;;5.38;3.05;;;9.90;99.90;;;;;;4994681;28;20372;-62
2023/10/29 01:17:56;;;;;;;6.32;3.35;;;9.90;99.90;;;;;;4994865;28;20033;-61
2023/10/29 01:20:22;;;;;;;8.18;2.60;;;9.90;99.90;;;;;;4994701;28;20057;-61
2023/10/29 01:22:48;;;;;;;4.20;2.40;;;9.90;99.90;;;;;;4997610;28;20490;-61
2023/10/29 01:25:13;;;;;;;6.90;3.40;;;9.80;99.90;;;;;;4997627;28;20030;-61
2023/10/29 01:27:39;;;;;;;7.05;2.50;;;9.80;99.90;;;;;;4994329;28;20034;-61
2023/10/29 01:30:05;;;;;;;7.03;2.50;;;9.80;99.90;;;;;;4995060;28;20035;-61
2023/10/29 01:32:32;;;;;;;3.22;2.50;;;9.80;99.90;;;;;;4994647;28;20404;-61
2023/10/29 01:34:58;;;;;;;6.00;2.55;;;9.80;99.90;;;;;;4998141;28;20196;-60
2023/10/29 01:37:24;;;;;;;8.57;3.10;;;9.80;99.90;;;;;;5001169;28;20117;-60
2023/10/29 01:39:50;;;;;;;8.00;2.67;;;9.80;99.90;;;;;;5001727;28;20307;-62
2023/10/29 01:42:15;;;;;;;7.88;2.70;;;9.80;99.90;;;;;;4999767;28;20505;-61
2023/10/29 01:44:41;;;;;;;4.55;2.58;;;9.80;99.90;;;;;;4998838;28;20401;-61
2023/10/29 01:47:07;;;;;;;5.22;2.90;;;9.80;99.90;;;;;;4996761;28;20401;-61
2023/10/29 01:49:36;;;;;;;3.03;2.45;;;9.80;99.90;;;;;;4999410;28;20031;-60
2023/10/29 01:52:01;;;;;;;8.35;2.65;;;9.80;99.90;;;;;;5000864;28;20509;-61
2023/10/29 01:54:27;;;;;;;8.55;3.03;;;9.80;99.90;;;;;;4998096;28;20046;-61
2023/10/29 01:56:53;;;;;;;6.25;2.75;;;9.80;99.90;;;;;;5001044;28;20019;-61
2023/10/29 01:59:18;;;;;;;5.10;2.67;;;9.80;99.90;;;;;;4999544;28;20424;-61
2023/10/29 02:01:44;;;;;;;7.18;2.75;;;9.80;99.90;;;;;;5000200;28;20042;-61
2023/10/29 02:04:10;;;;;;;5.30;3.00;;;9.80;99.90;;;;;;5002341;28;20041;-61
2023/10/29 02:06:39;;;;;;;4.00;2.67;;;9.80;99.90;;;;;;4995365;28;20033;-61
2023/10/29 02:09:09;;;;;;;2.92;2.38;;;9.80;99.90;;;;;;4998310;28;20022;-61
2023/10/29 02:11:38;;;;;;;5.78;2.03;;;9.80;99.90;;;;;;5000313;28;20510;-61
2023/10/29 02:14:05;;;;;;;4.30;2.30;;;9.80;99.90;;;;;;5002337;28;20421;-61
2023/10/29 02:16:31;;;;;;;4.97;2.38;;;9.80;99.90;;;;;;5000651;28;20038;-61
2023/10/29 02:18:57;;;;;;;4.43;2.90;;;9.80;99.90;;;;;;4999840;28;20060;-61
2023/10/29 02:21:24;;;;;;;7.03;3.88;;;9.80;99.90;;;;;;5000587;28;20513;-62
2023/10/29 02:23:50;;;;;;;4.95;1.95;;;9.90;99.90;;;;;;5001937;28;20476;-61
2023/10/29 02:26:16;;;;;;;6.88;2.05;;;9.90;99.90;;;;;;4999695;28;20037;-61
2023/10/29 02:28:42;;;;;;;5.13;2.30;;;9.80;99.90;;;;;;5000501;28;20401;-61
2023/10/29 02:31:08;;;;;;;4.07;1.80;;;9.90;99.90;;;;;;5001109;28;20034;-61
2023/10/29 02:33:33;;;;;;;6.00;2.05;;;9.90;99.90;;;;;;4997819;28;20046;-60
2023/10/29 02:35:59;;;;;;;4.45;2.17;;;9.90;99.90;;;;;;4996753;28;20021;-60
2023/10/29 02:38:25;;;;;;;5.03;2.35;;;9.90;99.90;;;;;;4993182;28;20030;-61
2023/10/29 02:40:50;;;;;;;4.53;2.35;;;9.90;99.90;;;;;;4998792;28;20414;-61
2023/10/29 02:43:16;;;;;;;6.05;2.63;;;9.90;99.90;;;;;;4998483;28;20505;-61
2023/10/29 02:45:42;;;;;;;7.10;2.28;;;9.90;99.90;;;;;;4996601;28;20030;-60
2023/10/29 02:48:08;;;;;;;4.95;1.90;;;9.90;99.90;;;;;;4998513;28;20030;-61
2023/10/29 02:50:40;;;;;;;3.25;2.13;;;9.90;99.90;;;;;;4984008;28;20026;-60
2023/10/29 02:53:06;;;;;;;3.35;2.05;;;9.90;99.90;;;;;;4995250;28;20042;-61
2023/10/29 02:55:31;;;;;;;6.13;2.15;;;9.90;99.90;;;;;;4996844;28;20034;-60
2023/10/29 02:57:57;;;;;;;2.83;2.00;;;9.80;99.90;;;;;;4998486;28;20045;-60
2023/10/29 03:00:23;;;;;;;2.85;1.90;;;9.80;99.90;;;;;;5001008;28;20617;-61
2023/10/29 03:02:48;;;;;;;7.10;1.95;;;9.80;99.90;;;;;;4999423;28;20044;-61
2023/10/29 03:05:14;;;;;;;4.18;2.30;;;9.80;99.90;;;;;;4997864;28;20089;-61
2023/10/29 03:07:39;;;;;;;5.65;1.98;;;9.80;99.90;;;;;;4996330;28;20037;-61
2023/10/29 03:10:05;;;;;;;6.80;2.30;;;9.70;99.90;;;;;;4999400;28;20041;-61
2023/10/29 03:12:31;;;;;;;4.10;2.85;;;9.70;99.90;;;;;;4997918;28;20145;-61
2023/10/29 03:14:57;;;;;;;4.82;2.20;;;9.70;99.90;;;;;;4998717;28;20903;-61
2023/10/29 03:17:23;;;;;;;4.50;2.25;;;9.70;99.90;;;;;;4998356;28;20378;-61
2023/10/29 03:19:48;;;;;;;3.83;2.00;;;9.70;99.90;;;;;;4998290;28;20034;-61
2023/10/29 03:22:14;;;;;;;7.95;2.47;;;9.70;99.90;;;;;;4996639;28;20693;-61
2023/10/29 03:24:39;;;;;;;3.80;2.42;;;9.60;99.90;;;;;;4992439;28;20030;-61
2023/10/29 03:27:05;;;;;;;12.45;2.65;;;9.60;99.90;;;;;;5002876;28;20021;-61
2023/10/29 03:29:31;;;;;;;5.85;2.08;;;9.60;99.90;;;;;;4998108;28;20401;-61
2023/10/29 03:31:57;;;;;;;3.95;2.38;;;9.60;99.90;;;;;;4999637;28;20084;-61
2023/10/29 03:34:22;;;;;;;4.68;2.25;;;9.60;99.90;;;;;;5013326;28;20057;-61
2023/10/29 03:36:48;;;;;;;3.88;2.67;;;9.60;99.90;;;;;;4998538;28;20034;-60
2023/10/29 03:39:15;;;;;;;8.02;2.40;;;9.60;99.90;;;;;;4997655;28;20071;-60
2023/10/29 03:41:41;;;;;;;6.50;2.60;;;9.60;99.90;;;;;;4997863;28;20030;-61
2023/10/29 03:44:07;;;;;;;6.85;2.40;;;9.70;99.90;;;;;;4999343;28;20059;-61
2023/10/29 03:46:33;;;;;;;4.82;2.10;;;9.70;99.90;;;;;;5000033;28;20114;-61
2023/10/29 03:48:59;;;;;;;7.25;2.30;;;9.60;99.90;;;;;;4997595;28;20446;-61
2023/10/29 03:51:28;;;;;;;5.03;2.15;;;9.70;99.90;;;;;;5000496;28;20026;-61
2023/10/29 03:53:56;;;;;;;4.13;2.75;;;9.70;99.90;;;;;;4997878;28;20108;-61
2023/10/29 03:56:22;;;;;;;3.72;2.17;;;9.70;99.90;;;;;;5000162;28;20449;-61
2023/10/29 03:58:48;;;;;;;5.95;2.60;;;9.60;99.90;;;;;;5000103;28;20061;-61
2023/10/29 04:01:18;;;;;;;3.22;2.00;;;9.70;99.90;;;;;;4998549;28;20030;-60
2023/10/29 04:03:43;;;;;;;2.85;2.20;;;9.70;99.90;;;;;;4997306;28;20548;-60
2023/10/29 04:06:12;;;;;;;4.43;2.15;;;9.70;99.90;;;;;;4997789;28;20113;-60
2023/10/29 04:08:39;;;;;;;5.82;2.20;;;9.70;99.90;;;;;;5000663;28;20026;-60
2023/10/29 04:11:05;;;;;;;2.20;1.70;;;9.70;99.90;;;;;;4995757;28;20022;-60
2023/10/29 04:13:31;;;;;;;4.35;2.00;;;9.70;99.90;;;;;;4997721;28;20030;-61
2023/10/29 04:15:57;;;;;;;9.43;3.60;;;9.70;99.90;;;;;;4996568;28;20125;-61
2023/10/29 04:18:27;;;;;;;3.60;2.22;;;9.70;99.90;;;;;;4996806;28;20056;-61
2023/10/29 04:20:55;;;;;;;5.57;2.20;;;9.60;99.90;;;;;;4996742;28;20025;-60
2023/10/29 04:23:22;;;;;;;4.38;2.33;;;9.60;99.90;;;;;;4995823;28;20142;-61
2023/10/29 04:25:47;;;;;;;5.22;2.30;;;9.60;99.90;;;;;;4997383;28;20484;-61
2023/10/29 04:28:13;;;;;;;6.65;1.98;;;9.70;99.90;;;;;;5000541;28;20030;-61
2023/10/29 04:30:38;;;;;;;3.92;2.20;;;9.60;99.90;;;;;;4996170;28;20061;-61
2023/10/29 04:33:04;;;;;;;4.15;1.95;;;9.60;99.90;;;;;;4999406;28;20126;-60
2023/10/29 04:35:30;;;;;;;4.95;1.90;;;9.60;99.90;;;;;;4996677;28;20030;-61
2023/10/29 04:37:56;;;;;;;3.08;1.85;;;9.50;99.90;;;;;;4995891;28;20029;-61
2023/10/29 04:40:21;;;;;;;7.97;1.95;;;9.50;99.90;;;;;;4993112;28;20089;-61
2023/10/29 04:42:47;;;;;;;2.92;1.63;;;9.40;99.90;;;;;;4992935;28;20058;-61
2023/10/29 04:45:13;;;;;;;1.90;1.63;;;9.40;99.90;;;;;;4991251;28;20034;-61
2023/10/29 04:47:39;;;;;;;2.13;1.55;;;9.40;99.90;;;;;;4994813;28;20386;-60
2023/10/29 04:50:06;;;;;;;7.57;2.35;;;9.30;99.90;;;;;;4995065;28;20113;-61
2023/10/29 04:52:32;;;;;;;3.53;1.90;;;9.30;99.90;;;;;;4998375;28;20405;-60
2023/10/29 04:54:57;;;;;;;18.63;2.63;;;9.20;99.90;;;;;;5000369;28;20141;-60
2023/10/29 04:57:23;;;;;;;3.15;1.95;;;9.20;99.90;;;;;;4994907;28;20117;-60
2023/10/29 04:59:49;;;;;;;3.15;2.05;;;9.20;99.90;;;;;;4998791;28;20073;-61
2023/10/29 05:02:18;;;;;;;3.05;1.77;;;9.10;99.90;;;;;;4994663;28;20031;-60
2023/10/29 05:04:44;;;;;;;3.83;2.10;;;9.10;99.90;;;;;;5002136;28;20056;-61
2023/10/29 05:07:09;;;;;;;7.45;3.03;;;9.10;99.90;;;;;;4997797;28;20509;-61
2023/10/29 05:09:35;;;;;;;3.83;1.98;;;9.10;99.90;;;;;;4997395;28;20038;-61
2023/10/29 05:12:02;;;;;;;4.35;2.22;;;9.10;99.90;;;;;;4995506;28;20057;-61
2023/10/29 05:14:27;;;;;;;2.60;1.80;;;9.10;99.90;;;;;;4998239;28;20030;-60
2023/10/29 05:16:53;;;;;;;3.45;2.20;;;9.10;99.90;;;;;;4998230;28;20026;-60
2023/10/29 05:19:19;;;;;;;3.15;1.95;;;9.00;99.90;;;;;;4995613;28;20031;-62
2023/10/29 05:21:45;;;;;;;4.18;1.90;;;9.10;99.90;;;;;;4996735;28;20041;-61
2023/10/29 05:24:11;;;;;;;2.85;1.45;;;9.00;99.90;;;;;;4995689;28;20018;-60
2023/10/29 05:26:37;;;;;;;4.32;2.78;;;9.00;99.90;;;;;;4995991;28;20113;-61
2023/10/29 05:29:04;;;;;;;2.83;2.42;;;9.00;99.90;;;;;;4999521;28;20076;-60
2023/10/29 05:31:31;;;;;;;3.75;1.60;;;9.00;99.90;;;;;;4996067;28;20113;-61
2023/10/29 05:33:56;;;;;;;5.00;1.73;;;9.00;99.90;;;;;;4995409;28;20042;-60
2023/10/29 05:36:22;;;;;;;4.55;2.10;;;9.00;99.90;;;;;;4998008;28;20077;-61
2023/10/29 05:38:47;;;;;;;5.13;2.58;;;9.00;99.90;;;;;;4997273;28;20022;-60
2023/10/29 05:41:13;;;;;;;5.05;2.67;;;9.00;99.90;;;;;;4996995;28;20030;-60
2023/10/29 05:43:39;;;;;;;31.27;3.72;;;9.00;99.90;;;;;;4998890;28;20378;-60
2023/10/29 05:46:04;;;;;;;6.43;1.92;;;9.00;99.90;;;;;;4996518;28;20385;-60
2023/10/29 05:48:30;;;;;;;3.65;1.88;;;9.00;99.90;;;;;;4997096;28;20088;-60
2023/10/29 05:50:56;;;;;;;5.13;1.98;;;8.90;99.90;;;;;;4999740;28;20025;-59
2023/10/29 05:53:22;;;;;;;3.75;1.95;;;8.90;99.90;;;;;;4994517;28;20410;-61
2023/10/29 05:55:47;;;;;;;2.80;1.80;;;8.90;99.90;;;;;;4997183;28;20042;-61
2023/10/29 05:58:13;;;;;;;5.93;1.98;;;8.80;99.90;;;;;;4994997;28;20057;-61
2023/10/29 06:00:38;;;;;;;4.03;1.85;;;8.80;99.90;;;;;;4995382;28;20800;-60
2023/10/29 06:03:04;;;;;;;5.30;2.17;;;8.80;99.90;;;;;;4998032;28;20022;-60
2023/10/29 06:05:30;;;;;;;3.95;2.60;;;8.90;99.90;;;;;;4996739;28;20034;-61
2023/10/29 06:07:56;;;;;;;5.93;2.80;;;8.90;99.90;;;;;;4997148;28;20533;-61
2023/10/29 06:10:22;;;;;;;2.55;2.03;;;9.00;99.90;;;;;;4997289;28;20061;-61
2023/10/29 06:12:47;;;;;;;5.97;1.80;;;9.00;99.90;;;;;;4997614;28;20417;-61
2023/10/29 06:15:13;;;;;;;4.18;1.90;;;9.00;99.90;;;;;;4991510;28;20117;-60
2023/10/29 06:17:41;;;;;;;3.47;1.88;;;9.00;99.90;;;;;;4998117;28;20026;-61
2023/10/29 06:20:10;;;;;;;2.63;1.65;;;9.00;99.90;;;;;;4998762;28;20043;-60
2023/10/29 06:22:36;;;;;;;3.75;2.05;;;8.90;99.90;;;;;;4997083;28;20027;-60
2023/10/29 06:25:01;;;;;;;3.50;1.90;;;8.90;99.90;;;;;;5002860;28;20113;-60
2023/10/29 06:27:27;;;;;;;4.53;1.95;;;8.90;99.90;;;;;;4998466;28;20149;-58
2023/10/29 06:29:53;;;;;;;3.08;2.15;;;8.90;99.90;;;;;;4997877;28;20046;-61
2023/10/29 06:32:19;;;;;;;3.20;1.80;;;9.00;99.90;;;;;;4999884;28;20520;-61
2023/10/29 06:34:45;;;;;;;1.73;1.50;;;9.00;99.90;;;;;;4996492;28;20038;-61
2023/10/29 06:37:10;;;;;;;6.47;3.05;;;9.00;99.90;;;;;;5000870;28;20402;-60
2023/10/29 06:39:36;;;;;;;2.15;1.70;;;9.00;99.90;;;;;;5001307;28;20092;-60
2023/10/29 06:42:02;;;;;;;2.58;1.75;;;9.10;99.90;;;;;;5000267;28;20579;-61
2023/10/29 06:44:27;;;;;;;4.35;2.17;;;9.10;99.90;;;;;;4999921;28;20080;-61
2023/10/29 06:46:53;;;;;;;2.75;1.70;;;9.20;99.90;;;;;;5001734;28;20023;-60
2023/10/29 06:49:18;;;;;;;4.85;1.88;;;9.20;99.90;;;;;;5000068;28;20026;-60
2023/10/29 06:51:44;;;;;;;3.60;1.77;;;9.30;99.90;;;;;;5001304;28;20061;-61
2023/10/29 06:54:11;;;;;;;5.38;2.38;;;9.40;99.90;;;;;;4997818;28;20082;-61
2023/10/29 06:56:37;;;;;;;2.65;1.40;;;9.50;99.90;;;;;;4999270;28;20027;-60
2023/10/29 06:59:02;;;;;;;3.00;1.63;;;9.60;99.90;;;;;;4998522;28;20033;-61
2023/10/29 07:01:28;;;;;;;2.67;1.45;;;9.60;99.90;;;;;;4998177;28;20045;-61
2023/10/29 07:03:54;;;;;;;7.53;1.67;;;9.70;99.90;;;;;;4998877;28;20037;-61
2023/10/29 07:06:19;;;;;;;2.53;1.40;;;9.70;99.90;;;;;;4999296;28;20029;-61
2023/10/29 07:08:47;;;;;;;1.88;1.10;;;9.70;99.90;;;;;;4998822;28;20023;-61
2023/10/29 07:11:13;;;;;;;2.15;1.35;;;9.80;99.90;;;;;;4994573;28;20030;-61
2023/10/29 07:13:38;;;;;;;2.58;1.25;;;9.80;99.90;;;;;;4997206;28;20383;-60
2023/10/29 07:16:04;;;;;;;4.35;1.40;;;9.80;99.90;;;;;;4999464;28;20061;-61
2023/10/29 07:18:30;;;;;;;2.47;1.60;;;9.90;99.90;;;;;;4995337;28;20524;-61
2023/10/29 07:20:56;;;;;;;3.63;1.50;;;10.00;99.90;;;;;;5000087;28;20093;-61
2023/10/29 07:23:22;;;;;;;2.08;1.30;;;10.00;99.90;;;;;;4996594;28;20444;-61
2023/10/29 07:25:49;;;;;;;2.60;1.52;;;10.00;99.90;;;;;;4998106;28;20118;-61
2023/10/29 07:28:15;;;;;;;2.53;1.20;;;10.00;99.90;;;;;;4999343;28;20104;-61
2023/10/29 07:30:41;;;;;;;1.73;1.38;;;10.00;99.90;;;;;;4999301;28;20053;-61
2023/10/29 07:33:11;;;;;;;2.50;1.25;;;10.00;99.90;;;;;;4997977;28;20041;-60
2023/10/29 07:35:38;;;;;;;1.80;1.25;;;10.00;99.90;;;;;;4996679;28;20056;-61
2023/10/29 07:38:05;;;;;;;3.25;1.63;;;10.10;99.90;;;;;;5000655;28;20076;-61
2023/10/29 07:40:31;;;;;;;12.70;2.28;;;10.10;99.90;;;;;;5000109;28;20054;-60
2023/10/29 07:42:57;;;;;;;2.92;1.92;;;10.10;99.90;;;;;;4999653;28;20060;-60
2023/10/29 07:45:23;;;;;;;2.05;1.23;;;10.20;99.90;;;;;;5002422;28;20029;-61
2023/10/29 07:47:48;;;;;;;2.40;1.60;;;10.20;99.90;;;;;;4996126;28;20014;-61
2023/10/29 07:50:15;;;;;;;2.03;1.50;;;10.20;99.90;;;;;;4997426;28;20069;-61
2023/10/29 07:52:40;;;;;;;3.20;1.35;;;10.20;99.90;;;;;;4999187;28;20066;-61
2023/10/29 07:55:08;;;;;;;2.60;1.42;;;10.30;99.90;;;;;;4999243;28;20053;-60
2023/10/29 07:57:33;;;;;;;4.25;1.40;;;10.30;99.90;;;;;;4999269;28;20030;-61
2023/10/29 07:59:59;;;;;;;1.63;1.50;;;10.40;99.90;;;;;;4997878;28;20048;-60
2023/10/29 08:02:25;;;;;;;2.47;1.45;;;10.70;99.90;;;;;;5000462;28;20398;-61
2023/10/29 08:04:50;;;;;;;1.42;1.33;;;10.80;99.90;;;;;;4996163;28;20085;-61
2023/10/29 08:07:16;;;;;;;2.47;1.40;;;10.80;99.90;;;;;;4994009;28;20037;-60
2023/10/29 08:09:42;;;;;;;2.22;1.35;;;10.70;99.90;;;;;;4997185;28;20410;-61
2023/10/29 08:12:08;;;;;;;1.70;1.40;;;10.70;99.90;;;;;;4994182;28;20033;-60
2023/10/29 08:14:34;;;;;;;1.30;1.13;;;10.60;99.90;;;;;;4997949;28;20018;-60
2023/10/29 08:16:59;;;;;;;3.17;1.27;;;10.60;99.90;;;;;;4997318;28;20034;-62
2023/10/29 08:19:26;;;;;;;1.50;1.00;;;10.60;99.90;;;;;;4996658;28;20030;-61
2023/10/29 08:21:52;;;;;;;1.42;1.10;;;10.60;99.90;;;;;;4994630;28;20030;-61
2023/10/29 08:24:18;;;;;;;3.15;1.83;;;10.60;99.90;;;;;;4995955;28;20140;-60
2023/10/29 08:26:43;;;;;;;1.70;1.20;;;10.50;99.90;;;;;;4998458;28;20034;-60
2023/10/29 08:29:11;;;;;;;2.70;1.20;;;10.50;99.90;;;;;;4996860;28;20089;-60
2023/10/29 08:31:37;;;;;;;1.60;1.50;;;10.50;99.90;;;;;;5005074;28;20118;-60
2023/10/29 08:34:02;;;;;;;1.27;1.00;;;10.50;99.90;;;;;;4998066;28;20121;-60
2023/10/29 08:36:28;;;;;;;3.10;1.20;;;10.40;99.90;;;;;;4997682;28;20045;-60
2023/10/29 08:38:54;;;;;;;2.83;1.27;;;10.50;99.90;;;;;;4997179;28;20084;-60
2023/10/29 08:41:20;;;;;;;3.17;1.20;;;10.50;99.90;;;;;;4997376;28;20030;-60
2023/10/29 08:43:45;;;;;;;2.30;1.30;;;10.50;99.90;;;;;;4998329;28;20049;-60
2023/10/29 08:46:12;;;;;;;2.65;1.17;;;10.50;99.90;;;;;;4995056;28;20580;-61
2023/10/29 08:48:38;;;;;;;2.65;1.50;;;10.50;99.90;;;;;;4994099;28;20089;-61
2023/10/29 08:51:04;;;;;;;2.35;1.40;;;10.60;99.90;;;;;;4998752;28;20041;-60
2023/10/29 08:53:30;;;;;;;2.50;1.17;;;10.60;99.90;;;;;;4997382;28;20137;-61
2023/10/29 08:55:55;;;;;;;1.60;1.40;;;10.70;99.90;;;;;;4998724;28;20121;-61
2023/10/29 08:58:21;;;;;;;4.65;1.35;;;10.70;99.90;;;;;;4995488;28;20117;-61
2023/10/29 09:00:47;;;;;;;2.10;1.42;;;10.80;99.90;;;;;;4997476;28;20494;-60
2023/10/29 09:03:14;;;;;;;1.60;1.08;;;10.80;99.90;;;;;;4997365;28;20022;-60
2023/10/29 09:05:40;;;;;;;2.05;1.08;;;10.90;99.90;;;;;;4998146;28;20043;-60
2023/10/29 09:08:06;;;;;;;3.35;1.63;;;10.90;99.90;;;;;;4996518;28;20088;-60
2023/10/29 09:10:32;;;;;;;3.15;1.40;;;11.00;99.90;;;;;;5013110;28;20026;-61
2023/10/29 09:12:59;;;;;;;1.30;1.00;;;11.00;99.90;;;;;;4999657;28;20034;-59
2023/10/29 09:15:25;;;;;;;2.20;1.27;;;11.00;99.90;;;;;;4995741;28;20018;-61
2023/10/29 09:17:51;;;;;;;3.28;1.00;;;11.20;99.90;;;;;;4999054;28;20026;-61
2023/10/29 09:20:16;;;;;;;4.90;2.03;;;11.30;99.90;;;;;;5013897;28;20030;-60
2023/10/29 09:22:42;;;;;;;3.17;1.20;;;11.30;99.90;;;;;;4997620;28;20037;-60
2023/10/29 09:25:09;;;;;;;2.10;1.20;;;11.40;99.90;;;;;;4995820;28;20038;-60
2023/10/29 09:27:35;;;;;;;1.40;1.17;;;11.60;99.90;;;;;;4990886;28;20026;-60
2023/10/29 09:30:01;;;;;;;1.25;1.10;;;11.80;99.90;;;;;;4998423;28;20084;-60
2023/10/29 09:32:26;;;;;;;2.78;1.23;;;12.10;99.90;;;;;;4995727;28;20122;-61
2023/10/29 09:34:52;;;;;;;1.52;1.10;;;12.40;99.90;;;;;;4998245;28;20030;-61
2023/10/29 09:37:18;;;;;;;1.75;1.40;;;12.50;99.90;;;;;;4995026;28;20061;-61
2023/10/29 09:39:44;;;;;;;1.83;1.20;;;12.70;99.90;;;;;;4994476;28;20038;-60
2023/10/29 09:42:11;;;;;;;1.98;1.10;;;12.70;99.90;;;;;;4996587;28;20787;-61
2023/10/29 09:44:41;;;;;;;1.20;1.10;;;12.90;99.90;;;;;;4993204;28;20511;-61
2023/10/29 09:47:15;;;;;;;3.63;1.35;;;13.00;99.90;;;;;;4995960;28;20030;-59
2023/10/29 09:49:41;;;;;;;2.63;1.05;;;13.10;99.90;;;;;;4995493;28;20062;-61
2023/10/29 09:52:08;;;;;;;2.70;1.13;;;13.30;99.90;;;;;;4995075;28;20057;-61
2023/10/29 09:54:35;;;;;;;3.28;1.10;;;13.50;99.90;;;;;;4993779;28;20035;-61
2023/10/29 09:57:00;;;;;;;1.98;1.02;;;13.50;99.90;;;;;;5005803;28;20086;-60
2023/10/29 09:59:26;;;;;;;4.00;1.15;;;13.50;99.90;;;;;;4998052;28;20042;-59
2023/10/29 10:01:51;;;;;;;2.28;0.95;;;13.50;99.90;;;;;;5000571;28;20045;-61
2023/10/29 10:04:17;;;;;;;2.13;1.23;;;13.60;99.90;;;;;;4996581;28;20034;-60
2023/10/29 10:06:44;;;;;;;2.30;1.30;;;13.70;99.90;;;;;;4996261;28;20054;-61
2023/10/29 10:09:10;;;;;;;3.90;2.65;;;13.70;99.90;;;;;;5000338;28;20397;-61
2023/10/29 10:11:36;;;;;;;5.03;3.53;;;13.70;99.90;;;;;;5001158;28;20023;-61
2023/10/29 10:14:01;;;;;;;3.53;3.10;;;13.70;99.90;;;;;;5001183;28;20394;-61
2023/10/29 10:16:27;;;;;;;5.13;2.65;;;13.80;99.90;;;;;;4999568;28;20034;-61
2023/10/29 10:18:57;;;;;;;2.25;2.00;;;14.00;99.90;;;;;;4999282;28;20044;-62
2023/10/29 10:21:26;;;;;;;1.70;1.40;;;14.10;99.90;;;;;;4999102;28;20023;-61
2023/10/29 10:23:55;;;;;;;5.72;3.75;;;14.10;99.90;;;;;;5000439;28;20756;-61
2023/10/29 10:26:33;;;;;;;5.63;4.80;;;14.10;99.90;;;;;;5002786;28;20057;-61
2023/10/29 10:29:00;;;;;;;3.33;1.83;;;14.10;99.90;;;;;;5000571;28;20096;-59
2023/10/29 10:31:30;;;;;;;5.57;1.40;;;14.00;99.90;;;;;;5000762;28;20106;-61
2023/10/29 10:34:09;;;;;;;3.33;1.60;;;14.10;99.90;;;;;;4998975;28;20034;-61
2023/10/29 10:36:34;;;;;;;2.35;0.98;;;14.20;99.90;;;;;;4999151;28;20041;-61
2023/10/29 10:39:00;;;;;;;1.83;1.05;;;14.10;99.90;;;;;;4999905;28;20025;-61
2023/10/29 10:41:45;;;;;;;2.40;1.10;;;14.00;99.90;;;;;;4997787;28;20113;-61
2023/10/29 10:44:14;;;;;;;1.60;1.10;;;14.00;99.90;;;;;;5000820;28;20507;-61
2023/10/29 10:46:51;;;;;;;3.38;0.93;;;14.00;99.90;;;;;;5000151;28;20045;-61
2023/10/29 10:49:18;;;;;;;2.50;1.00;;;14.00;99.90;;;;;;5001708;28;20056;-61
2023/10/29 10:51:45;;;;;;;1.75;1.13;;;13.90;99.90;;;;;;5002092;28;20121;-61
2023/10/29 10:54:11;;;;;;;6.15;1.20;;;13.70;99.90;;;;;;5001303;28;20769;-61
2023/10/29 10:56:38;;;;;;;3.22;1.08;;;13.50;99.90;;;;;;5001952;28;20021;-61
2023/10/29 10:59:08;;;;;;;3.15;1.15;;;13.30;99.90;;;;;;5001414;28;20391;-62
2023/10/29 11:01:37;;;;;;;5.25;1.10;;;13.20;99.90;;;;;;4999459;28;20037;-61
2023/10/29 11:04:05;;;;;;;2.53;1.15;;;13.10;99.90;;;;;;4997184;28;20435;-61
2023/10/29 11:06:31;;;;;;;4.28;1.33;;;12.90;99.90;;;;;;4998245;28;20077;-61
2023/10/29 11:08:58;;;;;;;4.88;1.00;;;12.80;99.90;;;;;;4999754;28;20025;-61
2023/10/29 11:11:45;;;;;;;4.38;1.10;;;12.70;99.90;;;;;;4999155;28;20046;-62
2023/10/29 11:14:12;;;;;;;1.83;1.00;;;12.50;99.90;;;;;;4997402;28;20038;-61
2023/10/29 11:16:54;;;;;;;2.15;1.00;;;12.40;99.90;;;;;;4998289;28;20061;-61
2023/10/29 11:19:44;;;;;;;3.42;1.10;;;12.30;99.90;;;;;;4998586;28;20030;-61
2023/10/29 11:22:29;;;;;;;2.08;1.20;;;12.20;99.90;;;;;;4989420;28;20033;-61
2023/10/29 11:25:10;;;;;;;4.80;1.20;;;12.10;99.90;;;;;;4998363;28;20042;-63
2023/10/29 11:27:40;;;;;;;;;;;12.00;99.90;;;;;;4997631;28;20058;-61
2023/10/29 11:30:22;;;;;;;4.90;2.25;;;12.00;99.90;;;;;;5000226;28;19909;-61
2023/10/29 11:33:05;;;;;;;;;;;12.00;99.90;;;;;;4998427;28;20134;-61
2023/10/29 11:35:31;;;;;;;1.92;1.25;;;12.00;99.90;;;;;;4998136;28;19915;-61
2023/10/29 11:37:59;;;;;;;1.92;1.02;;;12.00;99.90;;;;;;5000080;28;20026;-62
2023/10/29 11:40:25;;;;;;;3.88;1.20;;;12.10;99.90;;;;;;5000227;28;20033;-62
2023/10/29 11:42:51;;;;;;;1.73;1.10;;;12.20;99.90;;;;;;5000031;28;20026;-62
2023/10/29 11:45:26;;;;;;;2.35;1.30;;;12.30;99.90;;;;;;4997410;28;20026;-61
2023/10/29 11:48:08;;;;;;;1.58;1.02;;;12.50;99.90;;;;;;4996446;28;20098;-61
2023/10/29 11:50:34;;;;;;;1.85;1.20;;;12.70;99.90;;;;;;4999329;28;20117;-61
2023/10/29 11:53:00;;;;;;;2.97;1.20;;;12.80;99.90;;;;;;4993172;28;20110;-62
2023/10/29 11:55:34;;;;;;;3.85;2.03;;;12.80;99.90;;;;;;4998055;28;20034;-62
2023/10/29 11:58:00;;;;;;;2.45;1.50;;;12.80;99.90;;;;;;4997029;28;20594;-61
2023/10/29 12:00:40;;;;;;;4.72;1.60;;;12.70;99.90;;;;;;4999132;28;20018;-61
2023/10/29 12:03:06;;;;;;;2.80;1.95;;;12.70;99.90;;;;;;4997881;28;20498;-61
2023/10/29 12:05:32;;;;;;;12.05;2.05;;;12.70;99.90;;;;;;4997326;28;20500;-61
2023/10/29 12:07:59;;;;;;;2.55;1.77;;;12.70;99.90;;;;;;4996356;28;20046;-61
2023/10/29 12:10:24;;;;;;;2.78;1.92;;;12.60;99.90;;;;;;4996511;28;20029;-61
2023/10/29 12:12:53;;;;;;;2.78;1.60;;;12.50;99.90;;;;;;4995154;28;20425;-62
2023/10/29 12:15:20;;;;;;;4.40;1.80;;;12.40;99.90;;;;;;4998553;28;20056;-61
2023/10/29 12:17:46;;;;;;;2.92;1.80;;;12.40;99.90;;;;;;4998211;28;20031;-62
2023/10/29 12:20:25;;;;;;;3.25;1.70;;;12.30;99.90;;;;;;4997528;28;20034;-61
2023/10/29 12:23:00;;;;;;;5.03;1.70;;;12.20;99.90;;;;;;4998489;28;20034;-62
2023/10/29 12:25:27;;;;;;;2.92;1.52;;;12.20;99.90;;;;;;4997950;28;20026;-61
2023/10/29 12:27:53;;;;;;;1.98;1.75;;;12.30;99.90;;;;;;4998091;28;20517;-61
2023/10/29 12:30:42;;;;;;;3.10;1.98;;;12.30;99.90;;;;;;4997381;28;20029;-62
2023/10/29 12:33:34;;;;;;;4.43;1.70;;;12.40;99.90;;;;;;4999497;28;20557;-62
2023/10/29 12:36:03;;;;;;;2.28;1.60;;;12.50;99.90;;;;;;4997553;28;20034;-63
2023/10/29 12:38:29;;;;;;;5.20;1.80;;;12.50;99.90;;;;;;4997381;28;20074;-62
2023/10/29 12:41:05;;;;;;;3.10;1.58;;;12.40;99.90;;;;;;4997207;28;20050;-62
2023/10/29 12:43:37;;;;;;;2.88;1.73;;;12.40;99.90;;;;;;4998137;28;20025;-62
2023/10/29 12:46:08;;;;;;;7.80;1.92;;;12.40;99.90;;;;;;4998478;28;20026;-62
2023/10/29 12:48:34;;;;;;;4.30;2.10;;;12.30;99.90;;;;;;4994766;28;20031;-62
2023/10/29 12:51:02;;;;;;;2.47;1.90;;;12.20;99.90;;;;;;4998220;28;20017;-62